Time;durP1;ratioP1;P1;durP2;ratioP2;P2;SDS_P1;SDS_P2;PMS_P1;PMS_P2;Temp;Humidity;BMP_temperature;BMP_pressure;BME280_temperature;BME280_humidity;BME280_pressure;Samples;Min_cycle;Max_cycle;Signal;HPM_P1;HPM_P2
2022/05/01 00:01:53;;;;;;;27.60;24.60;;;;;;;6.66;53.56;98335.13;107811;1283;22588;-93
2022/05/01 00:04:21;;;;;;;33.50;30.10;;;;;;;6.64;53.51;98338.00;107604;1283;23015;-87
2022/05/01 00:06:50;;;;;;;32.80;29.70;;;;;;;6.63;53.71;98338.33;106940;1283;22558;-92
2022/05/01 00:09:17;;;;;;;29.00;26.00;;;;;;;6.63;53.75;98342.02;107023;1284;22603;-92
2022/05/01 00:11:46;;;;;;;23.30;20.80;;;;;;;6.65;53.62;98340.05;106216;1283;26689;-93
2022/05/01 00:14:14;;;;;;;22.20;20.00;;;;;;;6.68;53.72;98340.23;106077;1284;25034;-92
2022/05/01 00:16:43;;;;;;;23.30;21.00;;;;;;;6.71;53.78;98337.23;106523;1283;22737;-91
2022/05/01 00:19:11;;;;;;;23.90;21.60;;;;;;;6.75;53.83;98338.27;106199;1284;22567;-93
2022/05/01 00:21:39;;;;;;;23.30;21.10;;;;;;;6.80;53.68;98336.36;105821;1283;23656;-89
2022/05/01 00:24:09;;;;;;;25.20;22.30;;;;;;;6.86;53.67;98337.11;105739;1283;24377;-92
2022/05/01 00:26:36;;;;;;;24.40;22.00;;;;;;;6.91;53.75;98333.00;106096;1283;22573;-93
2022/05/01 00:29:06;;;;;;;23.80;21.50;;;;;;;6.92;53.80;98329.64;106095;1284;22725;-94
2022/05/01 00:31:40;;;;;;;23.30;21.10;;;;;;;6.92;53.70;98332.90;105971;1284;22560;-92
2022/05/01 00:36:55;;;;;;;30.50;27.60;;;;;;;6.82;53.76;98331.75;106499;1284;23971;-90
2022/05/01 00:39:23;;;;;;;23.00;20.80;;;;;;;6.74;53.84;98333.21;108337;1284;22564;-86
2022/05/01 00:41:50;;;;;;;17.80;15.80;;;;;;;6.64;53.93;98333.03;109117;1284;22400;-89
2022/05/01 00:44:21;;;;;;;16.00;14.30;;;;;;;6.54;53.83;98336.77;109074;1284;22554;-90
2022/05/01 00:46:51;;;;;;;17.10;14.90;;;;;;;6.44;54.03;98335.41;108022;1284;23986;-93
2022/05/01 00:49:24;;;;;;;19.00;17.10;;;;;;;6.42;54.31;98336.84;108463;1284;22545;-89
2022/05/01 00:55:38;;;;;;;20.60;18.60;;;;;;;6.50;54.48;98331.20;106803;1284;24379;-91
2022/05/01 00:58:07;;;;;;;20.70;18.50;;;;;;;6.56;54.35;98325.88;106404;1284;25434;-92
2022/05/01 01:00:35;;;;;;;26.70;24.00;;;;;;;6.61;54.41;98325.61;106302;1283;22563;-93
2022/05/01 01:03:03;;;;;;;27.40;24.60;;;;;;;6.62;54.42;98325.09;105871;1283;22570;-88
2022/05/01 01:05:32;;;;;;;26.40;23.80;;;;;;;6.62;54.47;98330.77;105582;1283;22540;-91
2022/05/01 01:08:00;;;;;;;23.70;21.50;;;;;;;6.61;54.51;98335.54;105592;1283;22567;-92
2022/05/01 01:10:28;;;;;;;34.60;31.40;;;;;;;6.60;54.65;98332.21;105554;1283;26505;-88
2022/05/01 01:12:56;;;;;;;56.80;51.20;;;;;;;6.58;54.59;98333.27;105936;1283;22560;-89
2022/05/01 01:15:28;;;;;;;33.50;30.30;;;;;;;6.56;54.66;98327.64;106838;1283;24355;-93
2022/05/01 01:17:56;;;;;;;26.00;23.60;;;;;;;6.53;54.83;98323.77;108361;1282;22571;-88
2022/05/01 01:20:27;;;;;;;29.80;27.10;;;;;;;6.49;54.85;98321.66;107738;1284;22494;-92
2022/05/01 01:22:58;;;;;;;30.50;27.30;;;;;;;6.49;54.83;98322.47;106348;1283;22557;-90
2022/05/01 01:25:29;;;;;;;31.20;28.30;;;;;;;6.49;54.85;98321.02;105711;1283;22728;-91
2022/05/01 01:28:05;;;;;;;28.40;25.40;;;;;;;6.49;54.77;98318.88;105698;1282;25443;-92
2022/05/01 01:33:25;;;;;;;28.10;25.70;;;;;;;6.48;54.79;98317.11;105870;1283;24298;-93
2022/05/01 01:35:55;;;;;;;21.10;19.10;;;;;;;6.44;54.80;98316.52;105833;1283;24108;-90
2022/05/01 01:38:23;;;;;;;17.60;15.60;;;;;;;6.41;54.94;98312.53;105760;1283;24173;-91
2022/05/01 01:40:57;;;;;;;15.90;14.30;;;;;;;6.38;55.01;98314.50;105709;1283;22605;-91
2022/05/01 01:43:29;;;;;;;18.00;16.20;;;;;;;6.37;54.90;98311.65;105783;1283;25049;-93
2022/05/01 01:45:57;;;;;;;18.10;16.40;;;;;;;6.38;54.76;98310.42;105670;1283;23036;-94
2022/05/01 01:48:25;;;;;;;16.50;14.70;;;;;;;6.39;54.96;98312.41;105657;1283;22551;-91
2022/05/01 01:51:03;;;;;;;16.50;15.00;;;;;;;6.39;55.00;98310.29;105901;1283;24066;-92
2022/05/01 01:53:33;;;;;;;17.60;15.80;;;;;;;6.39;54.84;98307.17;105922;1283;25938;-93
2022/05/01 01:56:02;;;;;;;21.20;19.20;;;;;;;6.40;55.02;98313.02;105755;1283;22482;-93
2022/05/01 01:58:31;;;;;;;39.40;36.20;;;;;;;6.40;55.03;98308.94;105806;1283;22706;-93
2022/05/01 02:01:02;;;;;;;81.10;74.40;;;;;;;6.41;54.98;98305.14;105838;1283;22558;-92
2022/05/01 02:03:30;;;;;;;24.90;22.70;;;;;;;6.41;55.05;98303.96;105740;1283;24224;-93
2022/05/01 02:05:59;;;;;;;16.40;14.80;;;;;;;6.42;54.83;98304.61;105714;1283;25383;-92
2022/05/01 02:08:27;;;;;;;21.60;16.50;;;;;;;6.43;55.06;98303.11;106073;1283;24205;-92
2022/05/01 02:10:55;;;;;;;15.60;13.40;;;;;;;6.45;54.92;98302.33;105970;1282;22655;-94
2022/05/01 02:13:23;;;;;;;14.50;12.30;;;;;;;6.46;54.98;98298.09;106595;1283;22678;-90
2022/05/01 02:15:51;;;;;;;17.60;14.10;;;;;;;6.47;54.99;98299.64;106276;1283;24344;-90
2022/05/01 02:18:19;;;;;;;16.60;15.10;;;;;;;6.49;54.99;98299.66;106764;1283;22574;-91
2022/05/01 02:23:33;;;;;;;16.10;14.00;;;;;;;6.53;54.99;98302.46;105967;1283;26695;-89
2022/05/01 02:26:01;;;;;;;16.50;14.80;;;;;;;6.57;54.98;98304.83;106472;1283;25914;-92
2022/05/01 02:28:29;;;;;;;17.10;15.40;;;;;;;6.59;55.01;98300.34;106435;1283;25482;-92
2022/05/01 02:30:57;;;;;;;19.10;16.50;;;;;;;6.61;54.88;98300.72;106497;1281;22610;-93
2022/05/01 02:33:25;;;;;;;19.40;17.50;;;;;;;6.61;54.87;98297.77;106495;1283;22572;-93
2022/05/01 02:35:53;;;;;;;20.40;18.40;;;;;;;6.60;54.91;98292.69;105895;1283;22744;-91
2022/05/01 02:38:21;;;;;;;19.50;17.60;;;;;;;6.58;54.97;98291.98;105998;1283;22666;-90
2022/05/01 02:40:49;;;;;;;19.50;17.50;;;;;;;6.55;55.13;98289.89;106340;1283;24237;-88
2022/05/01 02:43:17;;;;;;;17.90;16.20;;;;;;;6.52;54.97;98290.52;107708;1283;22492;-91
2022/05/01 02:45:45;;;;;;;17.20;14.80;;;;;;;6.49;55.16;98290.98;108162;1283;23838;-93
2022/05/01 02:48:12;;;;;;;16.00;14.40;;;;;;;6.47;55.06;98289.80;106864;1283;25673;-89
2022/05/01 02:50:40;;;;;;;25.20;22.60;;;;;;;6.47;55.08;98290.55;106006;1283;22563;-93
2022/05/01 02:53:08;;;;;;;19.70;17.80;;;;;;;6.43;54.88;98286.48;106172;1283;23270;-89
2022/05/01 02:55:37;;;;;;;18.10;16.20;;;;;;;6.39;55.03;98290.62;107700;1282;23541;-90
2022/05/01 02:58:07;;;;;;;16.70;15.10;;;;;;;6.31;55.10;98291.52;108479;1283;22753;-93
2022/05/01 03:00:35;;;;;;;15.60;14.10;;;;;;;6.22;55.18;98295.15;107338;1283;25296;-92
2022/05/01 03:03:09;;;;;;;16.00;14.40;;;;;;;6.09;54.95;98295.95;105997;1283;22518;-91
2022/05/01 03:05:37;;;;;;;15.60;14.10;;;;;;;5.97;55.39;98296.84;106198;1283;24344;-92
2022/05/01 03:08:05;;;;;;;16.30;14.70;;;;;;;5.88;55.50;98293.65;106083;1283;24332;-93
2022/05/01 03:10:32;;;;;;;16.40;14.80;;;;;;;5.75;55.53;98290.89;106328;1283;25672;-88
2022/05/01 03:13:00;;;;;;;16.00;14.50;;;;;;;5.64;55.78;98295.74;105998;1282;22629;-92
2022/05/01 03:15:27;;;;;;;14.70;13.10;;;;;;;5.49;55.63;98295.69;106152;1283;22674;-93
2022/05/01 03:23:28;;;;;;;19.70;17.60;;;;;;;5.12;56.15;98289.60;105825;1283;22597;-90
2022/05/01 03:25:57;;;;;;;15.20;13.60;;;;;;;5.09;56.56;98289.09;105769;1283;22550;-90
2022/05/01 03:28:26;;;;;;;15.90;13.90;;;;;;;5.10;56.22;98293.27;105995;1283;25937;-92
2022/05/01 03:30:54;;;;;;;16.40;14.40;;;;;;;5.11;56.52;98292.23;106282;1283;24314;-93
2022/05/01 03:33:23;;;;;;;15.40;13.90;;;;;;;5.14;56.63;98290.95;106361;1283;22763;-93
2022/05/01 03:35:53;;;;;;;15.70;14.20;;;;;;;5.14;56.60;98294.17;106052;1283;26001;-93
2022/05/01 03:38:21;;;;;;;17.30;13.70;;;;;;;5.13;56.23;98296.78;105826;1283;22617;-91
2022/05/01 03:40:49;;;;;;;13.60;12.20;;;;;;;5.11;56.52;98294.15;105949;1283;22563;-92
2022/05/01 03:43:23;;;;;;;15.50;13.90;;;;;;;5.07;56.51;98293.55;106436;1283;22600;-91
2022/05/01 03:45:51;;;;;;;14.70;12.30;;;;;;;5.02;56.94;98290.36;106005;1283;22566;-90
2022/05/01 03:48:28;;;;;;;15.60;14.00;;;;;;;5.03;57.29;98293.30;108204;1274;24225;31
2022/05/01 03:50:56;;;;;;;15.50;14.00;;;;;;;5.06;57.47;98293.45;106385;1283;23135;-92
2022/05/01 03:53:23;;;;;;;15.90;13.70;;;;;;;5.07;57.48;98291.55;107303;1283;22556;-89
2022/05/01 03:55:52;;;;;;;18.00;16.10;;;;;;;5.08;57.56;98289.02;106860;1283;25344;-91
2022/05/01 03:58:20;;;;;;;17.00;15.40;;;;;;;5.10;57.88;98291.57;106725;1283;22570;-89
2022/05/01 04:00:49;;;;;;;18.70;16.90;;;;;;;5.09;57.63;98291.52;106978;1283;22488;-90
2022/05/01 04:03:18;;;;;;;18.90;16.90;;;;;;;5.11;58.10;98296.42;106228;1283;23989;-92
2022/05/01 04:05:46;;;;;;;18.00;16.10;;;;;;;5.11;57.81;98297.08;105855;1283;22601;-90
2022/05/01 04:08:14;;;;;;;18.40;16.70;;;;;;;5.13;58.03;98297.26;105991;1283;23216;-91
2022/05/01 04:10:44;;;;;;;18.80;17.00;;;;;;;5.17;58.39;98293.44;106021;1284;25373;-91
2022/05/01 04:13:13;;;;;;;20.00;18.10;;;;;;;5.22;58.25;98295.09;106306;1283;23120;-90
2022/05/01 04:15:42;;;;;;;20.20;18.10;;;;;;;5.28;58.27;98291.62;106918;1282;23216;-93
2022/05/01 04:18:10;;;;;;;17.50;15.80;;;;;;;5.34;58.34;98291.99;107182;1284;24825;-94
2022/05/01 04:20:39;;;;;;;21.00;18.90;;;;;;;5.42;58.34;98294.23;106859;1284;22484;-90
2022/05/01 04:23:08;;;;;;;19.50;17.70;;;;;;;5.50;58.26;98293.77;107044;1283;22561;-92
2022/05/01 04:25:36;;;;;;;20.80;18.80;;;;;;;5.61;58.41;98294.65;106653;1283;25401;-90
2022/05/01 04:28:09;;;;;;;20.80;18.80;;;;;;;5.74;58.36;98295.65;106656;1283;22540;-91
2022/05/01 04:30:39;;;;;;;22.50;20.30;;;;;;;5.87;58.33;98296.11;106311;1283;24115;-92
2022/05/01 04:33:13;;;;;;;25.40;22.80;;;;;;;6.00;58.62;98296.02;107712;1283;22503;-86
2022/05/01 04:35:43;;;;;;;51.70;45.50;;;;;;;6.13;58.58;98295.86;108850;1283;22562;-93
2022/05/01 04:38:16;;;;;;;34.50;30.90;;;;;;;6.27;58.55;98295.61;107765;1283;22498;-92
2022/05/01 04:40:49;;;;;;;34.40;30.90;;;;;;;6.42;58.68;98294.98;107283;1283;22547;-93
2022/05/01 04:43:18;;;;;;;34.90;31.10;;;;;;;6.56;58.68;98294.23;107891;1283;22476;-93
2022/05/01 04:45:49;;;;;;;35.00;30.50;;;;;;;6.69;58.54;98292.06;107886;1283;22759;-92
2022/05/01 04:48:18;;;;;;;29.80;26.60;;;;;;;6.82;58.47;98293.61;107767;1283;22608;-92
2022/05/01 04:50:47;;;;;;;28.00;25.30;;;;;;;6.95;58.62;98292.83;107679;1281;25378;-93
2022/05/01 04:53:17;;;;;;;28.00;25.40;;;;;;;7.06;58.67;98296.33;107025;1283;25312;-93
2022/05/01 04:55:47;;;;;;;24.00;21.70;;;;;;;7.17;58.62;98297.95;106019;1283;22567;-90
2022/05/01 04:58:15;;;;;;;22.70;20.50;;;;;;;7.35;58.64;98301.39;105487;1283;22675;-92
2022/05/01 05:00:44;;;;;;;22.00;20.00;;;;;;;7.50;58.62;98300.66;106419;1283;22765;-93
2022/05/01 05:03:13;;;;;;;22.10;19.40;;;;;;;7.65;58.67;98295.56;106940;1283;22561;-93
2022/05/01 05:05:41;;;;;;;21.20;19.30;;;;;;;7.82;58.29;98296.13;106449;1282;22605;-94
2022/05/01 05:10:55;;;;;;;20.90;18.90;;;;;;;8.22;58.50;98298.88;106733;1283;22625;-91
2022/05/01 05:13:27;;;;;;;20.20;18.10;;;;;;;8.42;58.18;98296.95;106702;1283;22785;-89
2022/05/01 05:15:59;;;;;;;19.60;17.60;;;;;;;8.63;58.26;98297.13;106538;1283;22584;-92
2022/05/01 05:18:28;;;;;;;20.50;18.60;;;;;;;8.85;58.11;98300.46;106800;1283;22608;-93
2022/05/01 05:20:56;;;;;;;20.00;18.00;;;;;;;9.05;57.79;98299.80;106532;1283;22579;-91
2022/05/01 05:23:24;;;;;;;20.30;18.30;;;;;;;9.27;57.81;98300.40;106185;1283;22617;-93
2022/05/01 05:25:52;;;;;;;21.40;18.80;;;;;;;9.48;57.74;98296.98;106345;1283;22559;-91
2022/05/01 05:28:20;;;;;;;28.90;26.10;;;;;;;9.70;57.75;98302.80;106603;1283;22566;-93
2022/05/01 05:30:51;;;;;;;22.80;20.40;;;;;;;9.90;57.21;98303.27;106936;1283;22566;-94
2022/05/01 05:33:19;;;;;;;20.60;18.50;;;;;;;10.10;57.25;98304.05;107532;1283;22613;-93
2022/05/01 05:35:47;;;;;;;20.30;18.30;;;;;;;10.27;57.29;98304.58;107669;1283;24076;-90
2022/05/01 05:38:16;;;;;;;20.30;18.30;;;;;;;10.44;56.85;98301.92;106677;1283;22486;-93
2022/05/01 05:40:44;;;;;;;20.20;18.00;;;;;;;10.59;56.05;98305.94;106035;1283;22568;-91
2022/05/01 05:43:12;;;;;;;21.10;19.00;;;;;;;10.74;56.29;98305.80;106238;1283;22608;-94
2022/05/01 05:45:40;;;;;;;20.10;18.10;;;;;;;10.89;56.13;98308.40;106845;1283;22611;-90
2022/05/01 05:48:08;;;;;;;20.20;18.10;;;;;;;11.02;55.93;98314.70;108269;1283;22869;-91
2022/05/01 05:50:36;;;;;;;20.00;18.10;;;;;;;11.17;55.96;98319.14;109045;1283;23043;-90
2022/05/01 05:53:04;;;;;;;18.70;16.90;;;;;;;11.30;55.84;98321.69;109131;1282;22517;-88
2022/05/01 05:55:33;;;;;;;19.80;17.90;;;;;;;11.44;55.83;98323.70;108931;1283;22544;-89
2022/05/01 05:58:03;;;;;;;20.30;18.40;;;;;;;11.55;55.36;98320.66;108848;1282;22879;-92
2022/05/01 06:00:31;;;;;;;20.70;18.70;;;;;;;11.64;55.16;98322.61;108782;1282;22554;-92
2022/05/01 06:02:59;;;;;;;20.10;18.20;;;;;;;11.77;55.12;98324.45;108710;1282;22681;-92
2022/05/01 06:05:28;;;;;;;20.60;18.60;;;;;;;11.89;55.15;98330.16;106919;1283;24886;-93
2022/05/01 06:07:56;;;;;;;21.10;18.70;;;;;;;12.00;54.99;98330.80;106883;1283;23446;-92
2022/05/01 06:10:24;;;;;;;19.10;17.40;;;;;;;12.11;54.90;98332.76;107121;1283;22582;-87
2022/05/01 06:12:52;;;;;;;19.90;18.10;;;;;;;12.20;54.71;98336.20;109030;1283;22579;-91
2022/05/01 06:15:20;;;;;;;19.80;18.00;;;;;;;12.28;54.47;98334.21;108602;1281;22559;-94
2022/05/01 06:17:50;;;;;;;20.30;18.00;;;;;;;12.36;54.29;98337.91;107696;1282;23847;-93
2022/05/01 06:20:18;;;;;;;21.90;19.10;;;;;;;12.45;54.26;98342.60;107648;1282;22499;-92
2022/05/01 06:22:50;;;;;;;20.10;18.30;;;;;;;12.55;54.17;98343.89;107246;1283;22582;-89
2022/05/01 06:25:18;;;;;;;20.30;18.20;;;;;;;12.65;54.14;98343.71;106877;1283;22681;-93
2022/05/01 06:27:46;;;;;;;20.50;18.40;;;;;;;12.76;53.91;98344.11;106770;1283;24232;-95
2022/05/01 06:30:14;;;;;;;20.80;18.60;;;;;;;12.85;53.82;98342.95;106970;1283;24234;-90
2022/05/01 06:32:43;;;;;;;21.30;19.10;;;;;;;12.93;53.77;98340.92;106500;1283;22775;-93
2022/05/01 06:35:11;;;;;;;21.70;19.50;;;;;;;12.99;53.53;98341.14;106732;1282;24220;-94
2022/05/01 06:37:39;;;;;;;21.60;19.40;;;;;;;13.04;53.27;98337.71;106867;1283;22742;-93
2022/05/01 06:40:08;;;;;;;20.60;18.60;;;;;;;13.07;53.34;98332.14;106617;1282;22541;-93
2022/05/01 06:42:36;;;;;;;21.20;19.00;;;;;;;13.12;53.23;98331.27;106874;1283;22556;-94
2022/05/01 06:45:05;;;;;;;20.40;17.90;;;;;;;13.19;53.23;98329.10;106867;1283;25958;-93
2022/05/01 06:47:33;;;;;;;20.50;18.60;;;;;;;13.27;53.23;98332.41;106540;1283;22578;-92
2022/05/01 06:50:01;;;;;;;18.90;17.00;;;;;;;13.36;52.82;98331.70;106276;1283;22552;-93
2022/05/01 06:52:28;;;;;;;18.90;17.10;;;;;;;13.44;53.03;98332.90;106651;1283;22481;-93
2022/05/01 06:54:56;;;;;;;20.20;17.30;;;;;;;13.53;52.77;98335.13;106755;1283;24170;-93
2022/05/01 06:57:25;;;;;;;18.70;16.90;;;;;;;13.62;52.64;98330.30;106566;1283;22647;-91
2022/05/01 06:59:53;;;;;;;17.90;15.80;;;;;;;13.74;52.52;98334.55;106216;1282;23309;-91
2022/05/01 07:02:21;;;;;;;17.60;14.70;;;;;;;13.86;52.29;98333.52;106065;1283;23999;-93
2022/05/01 07:04:49;;;;;;;15.30;13.80;;;;;;;13.97;51.97;98331.13;105721;1283;22717;-91
2022/05/01 07:07:17;;;;;;;16.60;14.80;;;;;;;14.07;51.91;98332.17;105786;1283;24408;-94
2022/05/01 07:09:45;;;;;;;15.00;13.50;;;;;;;14.16;51.53;98333.46;105798;1283;23118;-92
2022/05/01 07:12:13;;;;;;;15.20;13.60;;;;;;;14.24;51.29;98337.83;105996;1283;23239;-92
2022/05/01 07:14:43;;;;;;;15.30;13.80;;;;;;;14.33;51.00;98338.95;106183;1283;22858;-87
2022/05/01 07:17:11;;;;;;;14.90;13.50;;;;;;;14.40;50.62;98335.36;106081;1283;22621;-91
2022/05/01 07:19:39;;;;;;;16.20;13.30;;;;;;;14.47;50.50;98339.34;106115;1283;22567;-89
2022/05/01 07:22:07;;;;;;;15.70;13.70;;;;;;;14.54;50.24;98339.87;105858;1283;23164;-92
2022/05/01 07:24:35;;;;;;;14.80;13.30;;;;;;;14.63;50.26;98345.39;105858;1283;25414;-93
2022/05/01 07:27:03;;;;;;;15.30;13.70;;;;;;;14.72;49.89;98342.26;105867;1283;22604;-92
2022/05/01 07:29:31;;;;;;;16.10;13.80;;;;;;;14.80;49.63;98344.36;105990;1283;22562;-94
2022/05/01 07:31:58;;;;;;;16.90;13.90;;;;;;;14.88;49.39;98336.98;105879;1283;22566;-91
2022/05/01 07:34:26;;;;;;;16.10;14.40;;;;;;;14.99;49.41;98333.61;106152;1283;24295;-92
2022/05/01 07:36:55;;;;;;;13.60;10.60;;;;;;;15.13;49.40;98334.88;105845;1283;22634;-87
2022/05/01 07:39:23;;;;;;;12.30;11.00;;;;;;;15.29;49.48;98336.70;105449;1283;22765;-87
2022/05/01 07:41:51;;;;;;;13.30;11.70;;;;;;;15.56;49.31;98333.00;105413;1283;25464;-88
2022/05/01 07:44:19;;;;;;;12.50;10.90;;;;;;;15.79;48.45;98331.45;105484;1283;22628;-85
2022/05/01 07:46:47;;;;;;;12.20;11.00;;;;;;;16.12;48.49;98329.77;105483;1283;25476;-87
2022/05/01 07:49:15;;;;;;;12.30;10.30;;;;;;;16.38;47.88;98332.17;106432;1282;22595;-85
2022/05/01 07:51:43;;;;;;;12.70;11.40;;;;;;;16.56;47.87;98333.02;107291;1283;22550;-86
2022/05/01 07:54:11;;;;;;;14.20;10.60;;;;;;;16.73;47.58;98328.90;105575;1282;22568;-85
2022/05/01 07:56:45;;;;;;;13.90;11.30;;;;;;;16.90;47.21;98326.34;105403;1283;22577;-86
2022/05/01 07:59:14;;;;;;;12.30;10.90;;;;;;;17.07;46.95;98328.77;105423;1283;23125;-85
2022/05/01 08:01:42;;;;;;;13.30;11.00;;;;;;;17.18;46.28;98326.99;105425;1283;24211;-85
2022/05/01 08:04:28;;;;;;;12.10;10.90;;;;;;;17.31;46.39;98326.16;105411;1283;22738;-87
2022/05/01 08:07:02;;;;;;;12.10;10.50;;;;;;;17.40;46.30;98318.65;105443;1283;24248;-85
2022/05/01 08:09:30;;;;;;;12.30;10.50;;;;;;;17.47;46.16;98322.88;105482;1283;22694;-84
2022/05/01 08:11:59;;;;;;;12.50;10.30;;;;;;;17.54;45.51;98316.74;105397;1283;23293;-87
2022/05/01 08:14:26;;;;;;;14.60;10.90;;;;;;;17.66;45.03;98314.38;105534;1283;24246;-90
2022/05/01 08:16:54;;;;;;;12.00;10.40;;;;;;;17.74;45.19;98312.14;105478;1283;22613;-91
2022/05/01 08:22:09;;;;;;;12.10;10.30;;;;;;;17.65;44.91;98303.90;105514;1283;22552;-90
2022/05/01 08:24:37;;;;;;;12.20;11.00;;;;;;;17.64;45.05;98305.33;105824;1283;25640;-89
2022/05/01 08:27:05;;;;;;;12.00;10.90;;;;;;;17.65;44.89;98304.46;105852;1283;24195;-90
2022/05/01 08:29:36;;;;;;;12.20;9.40;;;;;;;17.67;44.44;98305.20;105513;1283;22883;-89
2022/05/01 08:32:06;;;;;;;12.70;10.10;;;;;;;17.69;44.28;98301.63;105579;1283;22587;-90
2022/05/01 08:34:34;;;;;;;10.40;9.30;;;;;;;17.74;43.51;98302.33;105561;1283;25414;-90
2022/05/01 08:37:03;;;;;;;15.30;9.50;;;;;;;17.77;43.52;98298.80;105471;1283;22663;-90
2022/05/01 08:39:30;;;;;;;11.90;9.40;;;;;;;17.80;43.66;98299.69;105344;1284;22689;-89
2022/05/01 08:42:00;;;;;;;10.80;8.50;;;;;;;17.91;43.68;98292.81;105494;1283;22728;-87
2022/05/01 08:44:34;;;;;;;9.70;8.70;;;;;;;18.02;42.80;98289.93;105489;1282;22543;-89
2022/05/01 08:47:13;;;;;;;11.80;8.80;;;;;;;18.05;42.49;98291.91;105496;1283;22715;-89
2022/05/01 08:49:42;;;;;;;12.50;8.70;;;;;;;18.13;42.65;98287.72;105495;1283;24436;-90
2022/05/01 08:52:11;;;;;;;10.40;7.80;;;;;;;18.19;41.99;98285.88;105565;1283;22578;-91
2022/05/01 08:54:40;;;;;;;10.30;8.30;;;;;;;18.22;41.85;98285.77;105517;1283;24070;-89
2022/05/01 08:57:07;;;;;;;27.30;7.70;;;;;;;18.24;41.28;98280.48;105563;1283;24396;-89
2022/05/01 08:59:36;;;;;;;9.50;8.30;;;;;;;18.29;41.42;98281.71;105441;1283;24001;-89
2022/05/01 09:02:09;;;;;;;11.40;9.30;;;;;;;18.38;40.98;98282.24;105446;1283;23936;-87
2022/05/01 09:04:37;;;;;;;8.90;8.00;;;;;;;18.49;41.09;98278.07;105492;1283;22554;-88
2022/05/01 09:07:05;;;;;;;8.70;7.80;;;;;;;18.60;40.72;98277.40;105455;1283;22631;-89
2022/05/01 09:09:33;;;;;;;9.80;8.40;;;;;;;18.67;40.05;98270.02;105437;1283;22749;-88
2022/05/01 09:14:49;;;;;;;9.40;8.40;;;;;;;18.81;40.27;98269.63;105532;1283;22548;-88
2022/05/01 09:17:23;;;;;;;11.60;8.80;;;;;;;18.94;40.13;98269.73;105499;1283;25573;-89
2022/05/01 09:19:56;;;;;;;10.10;8.40;;;;;;;19.05;40.00;98270.91;105590;1283;22531;-88
2022/05/01 09:22:24;;;;;;;14.00;8.20;;;;;;;19.19;39.95;98266.77;105671;1283;25322;-87
2022/05/01 09:24:53;;;;;;;9.20;8.20;;;;;;;19.30;39.65;98265.09;105542;1283;22579;-88
2022/05/01 09:27:32;;;;;;;11.00;8.30;;;;;;;19.40;39.42;98265.20;106239;1283;22610;-88
2022/05/01 09:30:22;;;;;;;11.90;8.50;;;;;;;19.52;39.17;98264.81;106432;1283;22662;-88
2022/05/01 09:32:53;;;;;;;8.70;7.90;;;;;;;19.63;38.91;98261.29;105685;1282;24235;-90
2022/05/01 09:35:21;;;;;;;13.30;8.20;;;;;;;19.64;38.61;98256.26;105504;1283;22572;-86
2022/05/01 09:37:51;;;;;;;9.90;8.30;;;;;;;19.70;38.31;98254.70;105519;1283;25911;-88
2022/05/01 09:40:31;;;;;;;10.50;8.10;;;;;;;19.75;37.96;98256.73;105642;1283;24358;-86
2022/05/01 09:42:59;;;;;;;10.80;8.80;;;;;;;19.76;37.84;98256.67;105683;1283;22615;-87
2022/05/01 09:45:34;;;;;;;10.70;9.60;;;;;;;19.86;37.99;98254.05;105412;1283;22723;-87
2022/05/01 09:48:20;;;;;;;10.50;8.00;;;;;;;19.99;37.42;98251.09;105442;1283;22554;-88
2022/05/01 09:50:49;;;;;;;10.00;8.10;;;;;;;20.04;37.03;98255.67;105494;1283;24427;-88
2022/05/01 09:53:17;;;;;;;8.60;7.20;;;;;;;20.12;37.56;98253.74;105511;1283;22634;-89
2022/05/01 09:55:59;;;;;;;8.60;7.00;;;;;;;20.19;37.26;98249.48;105534;1283;22554;-89
2022/05/01 09:58:30;;;;;;;9.80;6.20;;;;;;;20.25;36.94;98245.48;105513;1283;22775;-89
2022/05/01 10:01:07;;;;;;;9.20;6.90;;;;;;;20.37;36.23;98242.95;105445;1283;24465;-88
2022/05/01 10:03:39;;;;;;;8.20;6.80;;;;;;;20.38;35.76;98246.27;105429;1283;25329;-89
2022/05/01 10:06:13;;;;;;;7.90;7.00;;;;;;;20.43;35.84;98239.73;105474;1283;22563;-84
2022/05/01 10:08:43;;;;;;;7.50;6.10;;;;;;;20.49;35.77;98239.37;105472;1283;22570;-86
2022/05/01 10:11:16;;;;;;;9.70;6.90;;;;;;;20.57;35.76;98235.39;105731;1283;22580;-88
2022/05/01 10:13:45;;;;;;;8.50;7.30;;;;;;;20.66;35.36;98235.42;106271;1283;25970;-86
2022/05/01 10:16:15;;;;;;;6.60;5.90;;;;;;;20.74;34.65;98234.11;106777;1282;22670;-87
2022/05/01 10:18:50;;;;;;;10.00;6.70;;;;;;;20.84;34.93;98230.20;105278;1283;242760;-85
2022/05/01 10:21:38;;;;;;;6.70;6.00;;;;;;;20.94;34.59;98230.64;105396;1283;26671;-88
2022/05/01 10:24:07;;;;;;;7.10;6.40;;;;;;;21.01;34.94;98227.24;105465;1283;22731;-88
2022/05/01 10:26:38;;;;;;;10.20;6.90;;;;;;;21.15;34.13;98225.83;105470;1283;25431;-92
2022/05/01 10:29:28;;;;;;;10.40;6.80;;;;;;;21.23;33.71;98227.17;105456;1283;23068;-89
2022/05/01 10:32:21;;;;;;;7.90;6.90;;;;;;;21.34;33.93;98220.02;105547;1283;22571;-89
2022/05/01 10:35:27;;;;;;;7.90;6.30;;;;;;;21.45;33.61;98220.02;105461;1283;26735;-89
2022/05/01 10:38:40;;;;;;;6.90;6.20;;;;;;;21.48;33.72;98219.43;105456;1283;22563;-90
2022/05/01 10:41:10;;;;;;;7.40;6.20;;;;;;;21.53;33.89;98219.77;104785;1292;22707;-90
2022/05/01 10:44:00;;;;;;;7.40;5.80;;;;;;;21.45;33.17;98217.98;106716;1291;22580;-92
2022/05/01 10:46:30;;;;;;;10.70;6.00;;;;;;;21.27;32.39;98213.54;104826;1292;22611;-91
2022/05/01 10:49:03;;;;;;;6.30;5.30;;;;;;;21.03;32.26;98216.36;104986;1292;22607;-92
2022/05/01 10:51:35;;;;;;;8.10;6.40;;;;;;;20.80;32.56;98213.20;104829;1292;23710;-87
2022/05/01 10:54:13;;;;;;;7.40;5.80;;;;;;;20.72;32.43;98212.47;104820;1290;22693;-89
2022/05/01 10:56:47;;;;;;;7.50;6.00;;;;;;;20.66;32.82;98215.41;104813;1291;25339;-89
2022/05/01 10:59:39;;;;;;;9.00;6.80;;;;;;;20.69;32.74;98214.99;105991;1292;22893;-92
2022/05/01 11:02:29;;;;;;;8.20;6.20;;;;;;;20.59;32.14;98202.80;106591;1291;22628;-88
2022/05/01 11:05:00;;;;;;;7.50;6.40;;;;;;;20.37;32.75;98211.89;107842;1291;22611;-89
2022/05/01 11:07:29;;;;;;;7.90;6.30;;;;;;;20.24;32.59;98212.77;107688;1291;22601;-89
2022/05/01 11:09:58;;;;;;;8.10;6.50;;;;;;;19.98;31.78;98218.09;108043;1291;22757;-89
2022/05/01 11:12:30;;;;;;;9.90;6.90;;;;;;;19.67;32.10;98222.50;107073;1284;22674;-86
2022/05/01 11:15:01;;;;;;;9.00;6.20;;;;;;;19.52;32.69;98217.89;108165;1284;22552;-90
2022/05/01 11:17:36;;;;;;;10.60;7.20;;;;;;;19.48;32.74;98219.73;107991;1284;22981;-90
2022/05/01 11:20:10;;;;;;;8.70;7.00;;;;;;;19.38;32.47;98214.45;107406;1285;22700;-90
2022/05/01 11:22:38;;;;;;;8.50;7.10;;;;;;;19.18;32.43;98213.99;106058;1284;25381;-91
2022/05/01 11:25:12;;;;;;;9.00;6.80;;;;;;;19.09;32.87;98214.45;106137;1284;22616;-87
2022/05/01 11:27:51;;;;;;;7.80;6.90;;;;;;;19.08;33.05;98213.33;106762;1286;22748;-92
2022/05/01 11:30:29;;;;;;;7.50;6.50;;;;;;;19.09;33.10;98213.28;105721;1285;22769;-91
2022/05/01 11:33:10;;;;;;;8.60;6.80;;;;;;;19.09;32.74;98217.42;105677;1284;22573;-90
2022/05/01 11:35:54;;;;;;;9.70;7.30;;;;;;;19.03;32.86;98211.95;105813;1284;22807;-89
2022/05/01 11:38:24;;;;;;;7.80;6.90;;;;;;;18.98;32.65;98214.30;106005;1284;24442;-91
2022/05/01 11:40:54;;;;;;;8.60;7.10;;;;;;;18.93;32.95;98212.42;106084;1284;24025;-89
2022/05/01 11:43:23;;;;;;;8.20;7.10;;;;;;;18.95;33.09;98212.89;105958;1284;24117;-89
2022/05/01 11:45:52;;;;;;;11.10;7.80;;;;;;;19.00;33.09;98204.98;106162;1286;24151;-88
2022/05/01 11:48:21;;;;;;;8.20;6.70;;;;;;;19.04;33.18;98200.11;106163;1286;22665;-91
2022/05/01 11:50:51;;;;;;;8.00;7.20;;;;;;;19.14;33.23;98201.16;106235;1283;23817;-90
2022/05/01 11:53:26;;;;;;;7.80;7.00;;;;;;;19.24;33.34;98201.98;106759;1283;25937;-89
2022/05/01 12:04:36;;;;;;;8.50;7.50;;;;;;;19.59;33.47;98199.23;105592;1283;23565;-92
2022/05/01 12:07:07;;;;;;;9.00;7.20;;;;;;;19.58;33.47;98202.10;105594;1283;22571;-87